Аэропорт: Чертовицкое. Воронеж

ICAO: UUOO

METAR:
2020-06-01 02:00:00
UUOO 010200Z 16001MPS CAVOK 12/09 Q1007 R30/090070 NOSIG RMK QFE742
METAR:
2020-05-31 22:59:00
TAF UUOO 312259Z 0100/0109 23004MPS 6000 -SHRA SCT011 BKN025CB